sensor_id;sensor_type;location;lat;lon;timestamp;P1;durP1;ratioP1;P2;durP2;ratioP2
4194;SDS011;2111;48.050;11.626;2022-09-01T00:01:19;7.28;;;6.47;;
4194;SDS011;2111;48.050;11.626;2022-09-01T00:03:47;9.70;;;7.30;;
4194;SDS011;2111;48.050;11.626;2022-09-01T00:06:22;9.23;;;7.20;;
4194;SDS011;2111;48.050;11.626;2022-09-01T00:08:53;8.25;;;7.35;;
4194;SDS011;2111;48.050;11.626;2022-09-01T00:11:22;8.10;;;7.30;;
4194;SDS011;2111;48.050;11.626;2022-09-01T00:13:51;8.05;;;7.25;;
4194;SDS011;2111;48.050;11.626;2022-09-01T00:16:18;8.15;;;6.65;;
4194;SDS011;2111;48.050;11.626;2022-09-01T00:18:47;8.25;;;7.03;;
4194;SDS011;2111;48.050;11.626;2022-09-01T00:21:19;8.85;;;7.55;;
4194;SDS011;2111;48.050;11.626;2022-09-01T00:23:49;9.75;;;8.18;;
4194;SDS011;2111;48.050;11.626;2022-09-01T00:26:15;8.50;;;6.90;;
4194;SDS011;2111;48.050;11.626;2022-09-01T00:28:43;9.05;;;7.43;;
4194;SDS011;2111;48.050;11.626;2022-09-01T00:31:10;9.70;;;7.10;;
4194;SDS011;2111;48.050;11.626;2022-09-01T00:33:40;11.35;;;8.20;;
4194;SDS011;2111;48.050;11.626;2022-09-01T00:36:07;10.70;;;8.38;;
4194;SDS011;2111;48.050;11.626;2022-09-01T00:38:34;10.32;;;8.52;;
4194;SDS011;2111;48.050;11.626;2022-09-01T00:41:01;11.35;;;8.40;;
4194;SDS011;2111;48.050;11.626;2022-09-01T00:43:36;11.02;;;8.30;;
4194;SDS011;2111;48.050;11.626;2022-09-01T00:46:14;10.25;;;8.77;;
4194;SDS011;2111;48.050;11.626;2022-09-01T00:48:46;12.02;;;9.07;;
4194;SDS011;2111;48.050;11.626;2022-09-01T00:51:14;11.85;;;9.25;;
4194;SDS011;2111;48.050;11.626;2022-09-01T00:53:41;12.07;;;9.95;;
4194;SDS011;2111;48.050;11.626;2022-09-01T00:56:11;10.88;;;9.27;;
4194;SDS011;2111;48.050;11.626;2022-09-01T00:58:38;13.10;;;10.35;;
4194;SDS011;2111;48.050;11.626;2022-09-01T01:01:07;12.38;;;9.73;;
4194;SDS011;2111;48.050;11.626;2022-09-01T01:03:34;12.65;;;9.75;;
4194;SDS011;2111;48.050;11.626;2022-09-01T01:06:04;14.70;;;10.15;;
4194;SDS011;2111;48.050;11.626;2022-09-01T01:08:34;15.82;;;10.98;;
4194;SDS011;2111;48.050;11.626;2022-09-01T01:11:06;14.77;;;9.00;;
4194;SDS011;2111;48.050;11.626;2022-09-01T01:16:16;13.95;;;10.57;;
4194;SDS011;2111;48.050;11.626;2022-09-01T01:18:43;11.88;;;9.57;;
4194;SDS011;2111;48.050;11.626;2022-09-01T01:21:16;14.20;;;10.30;;
4194;SDS011;2111;48.050;11.626;2022-09-01T01:24:15;11.73;;;9.68;;
4194;SDS011;2111;48.050;11.626;2022-09-01T01:26:44;11.57;;;9.40;;
4194;SDS011;2111;48.050;11.626;2022-09-01T01:29:13;12.10;;;9.63;;
4194;SDS011;2111;48.050;11.626;2022-09-01T01:31:40;14.73;;;10.38;;
4194;SDS011;2111;48.050;11.626;2022-09-01T01:34:07;15.43;;;10.68;;
4194;SDS011;2111;48.050;11.626;2022-09-01T01:36:35;13.88;;;11.82;;
4194;SDS011;2111;48.050;11.626;2022-09-01T01:39:05;12.63;;;10.38;;
4194;SDS011;2111;48.050;11.626;2022-09-01T01:41:33;15.05;;;11.25;;
4194;SDS011;2111;48.050;11.626;2022-09-01T01:44:01;13.05;;;11.48;;
4194;SDS011;2111;48.050;11.626;2022-09-01T01:46:31;16.75;;;12.40;;
4194;SDS011;2111;48.050;11.626;2022-09-01T01:48:58;15.85;;;11.23;;
4194;SDS011;2111;48.050;11.626;2022-09-01T01:51:27;16.45;;;11.63;;
4194;SDS011;2111;48.050;11.626;2022-09-01T01:53:57;16.98;;;12.30;;
4194;SDS011;2111;48.050;11.626;2022-09-01T01:56:27;15.05;;;11.80;;
4194;SDS011;2111;48.050;11.626;2022-09-01T01:58:54;16.08;;;10.20;;
4194;SDS011;2111;48.050;11.626;2022-09-01T02:01:23;13.60;;;10.85;;
4194;SDS011;2111;48.050;11.626;2022-09-01T02:03:50;16.10;;;11.77;;
4194;SDS011;2111;48.050;11.626;2022-09-01T02:06:20;14.68;;;10.77;;
4194;SDS011;2111;48.050;11.626;2022-09-01T02:08:54;15.10;;;11.07;;
4194;SDS011;2111;48.050;11.626;2022-09-01T02:11:23;16.00;;;11.88;;
4194;SDS011;2111;48.050;11.626;2022-09-01T02:13:54;15.57;;;11.35;;
4194;SDS011;2111;48.050;11.626;2022-09-01T02:16:26;13.13;;;10.07;;
4194;SDS011;2111;48.050;11.626;2022-09-01T02:18:53;11.82;;;9.45;;
4194;SDS011;2111;48.050;11.626;2022-09-01T02:21:22;14.20;;;9.70;;
4194;SDS011;2111;48.050;11.626;2022-09-01T02:23:50;12.25;;;9.23;;
4194;SDS011;2111;48.050;11.626;2022-09-01T02:26:27;12.75;;;9.35;;
4194;SDS011;2111;48.050;11.626;2022-09-01T02:28:57;12.02;;;9.57;;
4194;SDS011;2111;48.050;11.626;2022-09-01T02:31:27;14.23;;;10.00;;
4194;SDS011;2111;48.050;11.626;2022-09-01T02:33:54;12.93;;;9.95;;
4194;SDS011;2111;48.050;11.626;2022-09-01T02:36:21;12.60;;;10.02;;
4194;SDS011;2111;48.050;11.626;2022-09-01T02:38:51;14.38;;;9.77;;
4194;SDS011;2111;48.050;11.626;2022-09-01T02:41:22;14.65;;;9.95;;
4194;SDS011;2111;48.050;11.626;2022-09-01T02:43:50;12.27;;;9.80;;
4194;SDS011;2111;48.050;11.626;2022-09-01T02:46:17;13.98;;;10.70;;
4194;SDS011;2111;48.050;11.626;2022-09-01T02:48:49;11.93;;;9.50;;
4194;SDS011;2111;48.050;11.626;2022-09-01T02:51:17;13.15;;;9.38;;
4194;SDS011;2111;48.050;11.626;2022-09-01T02:53:46;13.07;;;9.32;;
4194;SDS011;2111;48.050;11.626;2022-09-01T02:56:16;11.55;;;8.55;;
4194;SDS011;2111;48.050;11.626;2022-09-01T02:58:44;12.95;;;9.55;;
4194;SDS011;2111;48.050;11.626;2022-09-01T03:01:22;11.43;;;8.73;;
4194;SDS011;2111;48.050;11.626;2022-09-01T03:03:51;11.07;;;9.00;;
4194;SDS011;2111;48.050;11.626;2022-09-01T03:06:21;13.73;;;10.30;;
4194;SDS011;2111;48.050;11.626;2022-09-01T03:08:50;12.20;;;9.60;;
4194;SDS011;2111;48.050;11.626;2022-09-01T03:11:17;12.98;;;9.25;;
4194;SDS011;2111;48.050;11.626;2022-09-01T03:13:45;10.50;;;8.43;;
4194;SDS011;2111;48.050;11.626;2022-09-01T03:16:12;10.52;;;8.02;;
4194;SDS011;2111;48.050;11.626;2022-09-01T03:18:39;10.90;;;8.23;;
4194;SDS011;2111;48.050;11.626;2022-09-01T03:21:08;13.25;;;9.80;;
4194;SDS011;2111;48.050;11.626;2022-09-01T03:23:35;12.40;;;9.38;;
4194;SDS011;2111;48.050;11.626;2022-09-01T03:26:03;12.73;;;9.20;;
4194;SDS011;2111;48.050;11.626;2022-09-01T03:28:29;10.73;;;8.52;;
4194;SDS011;2111;48.050;11.626;2022-09-01T03:30:57;9.82;;;7.93;;
4194;SDS011;2111;48.050;11.626;2022-09-01T03:33:24;12.55;;;8.52;;
4194;SDS011;2111;48.050;11.626;2022-09-01T03:35:52;10.57;;;8.77;;
4194;SDS011;2111;48.050;11.626;2022-09-01T03:38:20;12.43;;;8.57;;
4194;SDS011;2111;48.050;11.626;2022-09-01T03:40:51;10.68;;;8.35;;
4194;SDS011;2111;48.050;11.626;2022-09-01T03:43:24;10.80;;;8.00;;
4194;SDS011;2111;48.050;11.626;2022-09-01T03:46:00;11.30;;;8.45;;
4194;SDS011;2111;48.050;11.626;2022-09-01T03:48:28;12.20;;;8.50;;
4194;SDS011;2111;48.050;11.626;2022-09-01T03:50:57;10.98;;;8.60;;
4194;SDS011;2111;48.050;11.626;2022-09-01T03:53:29;11.13;;;8.15;;
4194;SDS011;2111;48.050;11.626;2022-09-01T03:55:57;10.50;;;8.45;;
4194;SDS011;2111;48.050;11.626;2022-09-01T03:58:25;11.38;;;8.82;;
4194;SDS011;2111;48.050;11.626;2022-09-01T04:00:54;12.40;;;8.55;;
4194;SDS011;2111;48.050;11.626;2022-09-01T04:03:22;11.65;;;8.73;;
4194;SDS011;2111;48.050;11.626;2022-09-01T04:05:57;12.70;;;8.90;;
4194;SDS011;2111;48.050;11.626;2022-09-01T04:08:25;12.88;;;8.93;;
4194;SDS011;2111;48.050;11.626;2022-09-01T04:10:59;12.70;;;8.23;;
4194;SDS011;2111;48.050;11.626;2022-09-01T04:13:29;13.45;;;9.90;;
4194;SDS011;2111;48.050;11.626;2022-09-01T04:16:00;14.10;;;9.38;;
4194;SDS011;2111;48.050;11.626;2022-09-01T04:18:27;12.55;;;9.57;;
4194;SDS011;2111;48.050;11.626;2022-09-01T04:20:56;13.95;;;10.20;;
4194;SDS011;2111;48.050;11.626;2022-09-01T04:23:29;13.57;;;10.13;;
4194;SDS011;2111;48.050;11.626;2022-09-01T04:26:04;12.18;;;9.32;;
4194;SDS011;2111;48.050;11.626;2022-09-01T04:28:36;12.95;;;9.85;;
4194;SDS011;2111;48.050;11.626;2022-09-01T04:31:05;13.30;;;9.55;;
4194;SDS011;2111;48.050;11.626;2022-09-01T04:33:35;12.18;;;9.95;;
4194;SDS011;2111;48.050;11.626;2022-09-01T04:36:05;15.93;;;9.57;;
4194;SDS011;2111;48.050;11.626;2022-09-01T04:38:38;11.40;;;8.75;;
4194;SDS011;2111;48.050;11.626;2022-09-01T04:41:06;13.95;;;9.70;;
4194;SDS011;2111;48.050;11.626;2022-09-01T04:43:33;14.27;;;10.13;;
4194;SDS011;2111;48.050;11.626;2022-09-01T04:46:00;12.18;;;8.65;;
4194;SDS011;2111;48.050;11.626;2022-09-01T04:48:28;12.25;;;9.32;;
4194;SDS011;2111;48.050;11.626;2022-09-01T04:50:56;12.27;;;9.15;;
4194;SDS011;2111;48.050;11.626;2022-09-01T04:53:23;12.68;;;9.30;;
4194;SDS011;2111;48.050;11.626;2022-09-01T04:55:53;11.85;;;8.82;;
4194;SDS011;2111;48.050;11.626;2022-09-01T04:58:20;12.38;;;9.13;;
4194;SDS011;2111;48.050;11.626;2022-09-01T05:00:48;12.27;;;9.35;;
4194;SDS011;2111;48.050;11.626;2022-09-01T05:03:21;13.18;;;9.60;;
4194;SDS011;2111;48.050;11.626;2022-09-01T05:05:49;13.48;;;9.43;;
4194;SDS011;2111;48.050;11.626;2022-09-01T05:08:19;12.02;;;9.20;;
4194;SDS011;2111;48.050;11.626;2022-09-01T05:10:58;10.05;;;8.60;;
4194;SDS011;2111;48.050;11.626;2022-09-01T05:13:31;10.77;;;7.70;;
4194;SDS011;2111;48.050;11.626;2022-09-01T05:15:59;11.30;;;8.23;;
4194;SDS011;2111;48.050;11.626;2022-09-01T05:18:27;10.95;;;8.00;;
4194;SDS011;2111;48.050;11.626;2022-09-01T05:20:54;8.40;;;7.28;;
4194;SDS011;2111;48.050;11.626;2022-09-01T05:23:22;10.32;;;7.43;;
4194;SDS011;2111;48.050;11.626;2022-09-01T05:25:51;8.32;;;7.32;;
4194;SDS011;2111;48.050;11.626;2022-09-01T05:28:20;11.68;;;8.50;;
4194;SDS011;2111;48.050;11.626;2022-09-01T05:30:50;9.73;;;8.02;;
4194;SDS011;2111;48.050;11.626;2022-09-01T05:33:19;9.23;;;7.45;;
4194;SDS011;2111;48.050;11.626;2022-09-01T05:35:54;10.65;;;8.63;;
4194;SDS011;2111;48.050;11.626;2022-09-01T05:38:22;8.82;;;7.22;;
4194;SDS011;2111;48.050;11.626;2022-09-01T05:40:54;10.82;;;7.95;;
4194;SDS011;2111;48.050;11.626;2022-09-01T05:43:22;11.07;;;7.53;;
4194;SDS011;2111;48.050;11.626;2022-09-01T05:45:50;11.60;;;7.75;;
4194;SDS011;2111;48.050;11.626;2022-09-01T05:48:32;10.65;;;7.45;;
4194;SDS011;2111;48.050;11.626;2022-09-01T05:51:05;9.57;;;7.93;;
4194;SDS011;2111;48.050;11.626;2022-09-01T05:53:54;13.07;;;7.13;;
4194;SDS011;2111;48.050;11.626;2022-09-01T05:56:25;9.60;;;7.53;;
4194;SDS011;2111;48.050;11.626;2022-09-01T05:58:52;9.98;;;7.97;;
4194;SDS011;2111;48.050;11.626;2022-09-01T06:01:40;10.27;;;7.22;;
4194;SDS011;2111;48.050;11.626;2022-09-01T06:04:12;8.25;;;6.88;;
4194;SDS011;2111;48.050;11.626;2022-09-01T06:06:40;11.10;;;6.65;;
4194;SDS011;2111;48.050;11.626;2022-09-01T06:09:32;9.98;;;7.30;;
4194;SDS011;2111;48.050;11.626;2022-09-01T06:11:59;10.25;;;7.78;;
4194;SDS011;2111;48.050;11.626;2022-09-01T06:14:27;9.00;;;6.80;;
4194;SDS011;2111;48.050;11.626;2022-09-01T06:16:54;8.98;;;7.47;;
4194;SDS011;2111;48.050;11.626;2022-09-01T06:19:21;11.00;;;6.97;;
4194;SDS011;2111;48.050;11.626;2022-09-01T06:21:48;7.68;;;6.65;;
4194;SDS011;2111;48.050;11.626;2022-09-01T06:24:15;9.85;;;7.32;;
4194;SDS011;2111;48.050;11.626;2022-09-01T06:26:43;9.65;;;7.75;;
4194;SDS011;2111;48.050;11.626;2022-09-01T06:29:11;9.50;;;8.05;;
4194;SDS011;2111;48.050;11.626;2022-09-01T06:31:41;12.43;;;7.88;;
4194;SDS011;2111;48.050;11.626;2022-09-01T06:34:09;9.50;;;8.20;;
4194;SDS011;2111;48.050;11.626;2022-09-01T06:36:43;12.18;;;7.93;;
4194;SDS011;2111;48.050;11.626;2022-09-01T06:39:11;9.60;;;7.28;;
4194;SDS011;2111;48.050;11.626;2022-09-01T06:41:46;9.88;;;7.68;;
4194;SDS011;2111;48.050;11.626;2022-09-01T06:44:18;8.90;;;7.68;;
4194;SDS011;2111;48.050;11.626;2022-09-01T06:46:51;9.15;;;7.10;;
4194;SDS011;2111;48.050;11.626;2022-09-01T06:49:19;8.48;;;6.80;;
4194;SDS011;2111;48.050;11.626;2022-09-01T06:51:49;9.13;;;6.78;;
4194;SDS011;2111;48.050;11.626;2022-09-01T06:54:16;7.78;;;6.97;;
4194;SDS011;2111;48.050;11.626;2022-09-01T06:56:46;10.18;;;7.50;;
4194;SDS011;2111;48.050;11.626;2022-09-01T06:59:17;9.15;;;7.47;;
4194;SDS011;2111;48.050;11.626;2022-09-01T07:01:45;11.68;;;7.95;;
4194;SDS011;2111;48.050;11.626;2022-09-01T07:04:14;9.07;;;6.78;;
4194;SDS011;2111;48.050;11.626;2022-09-01T07:06:45;8.52;;;6.90;;
4194;SDS011;2111;48.050;11.626;2022-09-01T07:09:35;9.13;;;7.32;;
4194;SDS011;2111;48.050;11.626;2022-09-01T07:12:15;6.82;;;6.07;;
4194;SDS011;2111;48.050;11.626;2022-09-01T07:14:53;8.32;;;6.88;;
4194;SDS011;2111;48.050;11.626;2022-09-01T07:17:40;7.75;;;6.18;;
4194;SDS011;2111;48.050;11.626;2022-09-01T07:20:09;6.95;;;5.78;;
4194;SDS011;2111;48.050;11.626;2022-09-01T07:22:53;7.90;;;5.60;;
4194;SDS011;2111;48.050;11.626;2022-09-01T07:25:29;9.30;;;4.93;;
4194;SDS011;2111;48.050;11.626;2022-09-01T07:28:17;5.20;;;4.70;;
4194;SDS011;2111;48.050;11.626;2022-09-01T07:30:51;5.57;;;4.82;;
4194;SDS011;2111;48.050;11.626;2022-09-01T07:33:18;5.53;;;4.95;;
4194;SDS011;2111;48.050;11.626;2022-09-01T07:36:09;5.53;;;4.70;;
4194;SDS011;2111;48.050;11.626;2022-09-01T07:38:52;5.07;;;4.57;;
4194;SDS011;2111;48.050;11.626;2022-09-01T07:41:40;7.35;;;5.93;;
4194;SDS011;2111;48.050;11.626;2022-09-01T07:44:27;5.95;;;5.43;;
4194;SDS011;2111;48.050;11.626;2022-09-01T07:46:54;5.32;;;4.80;;
4194;SDS011;2111;48.050;11.626;2022-09-01T07:49:41;5.75;;;5.00;;
4194;SDS011;2111;48.050;11.626;2022-09-01T07:52:27;5.25;;;4.80;;
4194;SDS011;2111;48.050;11.626;2022-09-01T07:54:56;5.88;;;5.35;;
4194;SDS011;2111;48.050;11.626;2022-09-01T07:57:23;5.40;;;4.75;;
4194;SDS011;2111;48.050;11.626;2022-09-01T07:59:50;5.57;;;4.97;;
4194;SDS011;2111;48.050;11.626;2022-09-01T08:02:20;5.90;;;4.72;;
4194;SDS011;2111;48.050;11.626;2022-09-01T08:04:47;5.50;;;4.78;;
4194;SDS011;2111;48.050;11.626;2022-09-01T08:07:14;5.50;;;5.00;;
4194;SDS011;2111;48.050;11.626;2022-09-01T08:09:41;6.00;;;4.70;;
4194;SDS011;2111;48.050;11.626;2022-09-01T08:12:09;5.30;;;4.32;;
4194;SDS011;2111;48.050;11.626;2022-09-01T08:14:37;5.80;;;4.55;;
4194;SDS011;2111;48.050;11.626;2022-09-01T08:17:04;5.22;;;4.72;;
4194;SDS011;2111;48.050;11.626;2022-09-01T08:19:51;5.82;;;4.80;;
4194;SDS011;2111;48.050;11.626;2022-09-01T08:22:19;6.63;;;4.95;;
4194;SDS011;2111;48.050;11.626;2022-09-01T08:24:50;6.75;;;5.10;;
4194;SDS011;2111;48.050;11.626;2022-09-01T08:27:18;6.40;;;5.40;;
4194;SDS011;2111;48.050;11.626;2022-09-01T08:29:45;5.20;;;4.70;;
4194;SDS011;2111;48.050;11.626;2022-09-01T08:32:12;5.28;;;4.78;;
4194;SDS011;2111;48.050;11.626;2022-09-01T08:34:38;5.05;;;4.55;;
4194;SDS011;2111;48.050;11.626;2022-09-01T08:37:05;5.78;;;4.85;;
4194;SDS011;2111;48.050;11.626;2022-09-01T08:39:32;5.32;;;4.78;;
4194;SDS011;2111;48.050;11.626;2022-09-01T08:42:21;5.40;;;4.40;;
4194;SDS011;2111;48.050;11.626;2022-09-01T08:48:37;4.95;;;4.47;;
4194;SDS011;2111;48.050;11.626;2022-09-01T08:51:32;5.60;;;5.10;;
4194;SDS011;2111;48.050;11.626;2022-09-01T08:57:01;4.60;;;4.20;;
4194;SDS011;2111;48.050;11.626;2022-09-01T08:59:32;4.35;;;3.95;;
4194;SDS011;2111;48.050;11.626;2022-09-01T09:02:12;5.30;;;4.13;;
4194;SDS011;2111;48.050;11.626;2022-09-01T09:07:57;3.85;;;3.55;;
4194;SDS011;2111;48.050;11.626;2022-09-01T09:10:54;3.15;;;2.95;;
4194;SDS011;2111;48.050;11.626;2022-09-01T09:13:38;3.95;;;3.65;;
4194;SDS011;2111;48.050;11.626;2022-09-01T09:16:21;3.47;;;3.17;;
4194;SDS011;2111;48.050;11.626;2022-09-01T09:18:55;3.63;;;3.25;;
4194;SDS011;2111;48.050;11.626;2022-09-01T09:21:28;3.80;;;3.50;;
4194;SDS011;2111;48.050;11.626;2022-09-01T09:24:01;3.55;;;3.25;;
4194;SDS011;2111;48.050;11.626;2022-09-01T09:27:05;3.40;;;3.10;;
4194;SDS011;2111;48.050;11.626;2022-09-01T09:29:34;2.63;;;2.42;;
4194;SDS011;2111;48.050;11.626;2022-09-01T09:32:05;3.22;;;2.83;;
4194;SDS011;2111;48.050;11.626;2022-09-01T09:34:48;2.78;;;2.58;;
4194;SDS011;2111;48.050;11.626;2022-09-01T09:37:49;3.70;;;3.40;;
4194;SDS011;2111;48.050;11.626;2022-09-01T09:45:21;2.70;;;2.50;;
4194;SDS011;2111;48.050;11.626;2022-09-01T09:47:49;3.00;;;2.50;;
4194;SDS011;2111;48.050;11.626;2022-09-01T09:50:27;1.92;;;1.83;;
4194;SDS011;2111;48.050;11.626;2022-09-01T09:56:03;2.42;;;2.22;;
4194;SDS011;2111;48.050;11.626;2022-09-01T09:58:35;1.90;;;1.80;;
4194;SDS011;2111;48.050;11.626;2022-09-01T10:01:09;2.42;;;2.10;;
4194;SDS011;2111;48.050;11.626;2022-09-01T10:03:47;2.00;;;1.90;;
4194;SDS011;2111;48.050;11.626;2022-09-01T10:06:37;2.28;;;2.17;;
4194;SDS011;2111;48.050;11.626;2022-09-01T10:09:08;2.88;;;2.67;;
4194;SDS011;2111;48.050;11.626;2022-09-01T10:11:41;5.05;;;2.92;;
4194;SDS011;2111;48.050;11.626;2022-09-01T10:14:18;6.72;;;3.15;;
4194;SDS011;2111;48.050;11.626;2022-09-01T10:17:40;2.47;;;2.28;;
4194;SDS011;2111;48.050;11.626;2022-09-01T10:20:06;2.55;;;2.35;;
4194;SDS011;2111;48.050;11.626;2022-09-01T10:22:38;3.65;;;2.25;;
4194;SDS011;2111;48.050;11.626;2022-09-01T10:25:07;2.60;;;2.50;;
4194;SDS011;2111;48.050;11.626;2022-09-01T10:27:39;2.60;;;2.40;;
4194;SDS011;2111;48.050;11.626;2022-09-01T10:30:13;2.65;;;2.30;;
4194;SDS011;2111;48.050;11.626;2022-09-01T10:32:49;2.58;;;2.35;;
4194;SDS011;2111;48.050;11.626;2022-09-01T10:37:55;2.20;;;2.00;;
4194;SDS011;2111;48.050;11.626;2022-09-01T10:43:21;2.33;;;1.60;;
4194;SDS011;2111;48.050;11.626;2022-09-01T10:45:43;2.38;;;1.63;;
4194;SDS011;2111;48.050;11.626;2022-09-01T10:53:47;1.65;;;1.55;;
4194;SDS011;2111;48.050;11.626;2022-09-01T10:56:34;3.28;;;1.50;;
4194;SDS011;2111;48.050;11.626;2022-09-01T11:07:32;1.40;;;1.30;;
4194;SDS011;2111;48.050;11.626;2022-09-01T11:10:33;1.80;;;1.70;;
4194;SDS011;2111;48.050;11.626;2022-09-01T11:15:49;2.60;;;2.15;;
4194;SDS011;2111;48.050;11.626;2022-09-01T11:18:22;2.28;;;1.83;;
4194;SDS011;2111;48.050;11.626;2022-09-01T11:20:52;4.25;;;2.38;;
4194;SDS011;2111;48.050;11.626;2022-09-01T11:23:24;2.10;;;2.00;;
4194;SDS011;2111;48.050;11.626;2022-09-01T11:26:02;2.25;;;2.08;;
4194;SDS011;2111;48.050;11.626;2022-09-01T11:29:00;2.00;;;1.90;;
4194;SDS011;2111;48.050;11.626;2022-09-01T11:31:39;2.45;;;2.08;;
4194;SDS011;2111;48.050;11.626;2022-09-01T11:41:49;3.28;;;1.75;;
4194;SDS011;2111;48.050;11.626;2022-09-01T11:47:12;2.30;;;2.10;;
4194;SDS011;2111;48.050;11.626;2022-09-01T11:50:02;1.50;;;1.40;;
4194;SDS011;2111;48.050;11.626;2022-09-01T11:52:35;1.48;;;1.38;;
4194;SDS011;2111;48.050;11.626;2022-09-01T11:55:04;2.30;;;2.03;;
4194;SDS011;2111;48.050;11.626;2022-09-01T11:57:33;5.57;;;2.05;;
4194;SDS011;2111;48.050;11.626;2022-09-01T12:00:03;2.00;;;1.70;;
4194;SDS011;2111;48.050;11.626;2022-09-01T12:02:32;1.50;;;1.38;;
4194;SDS011;2111;48.050;11.626;2022-09-01T12:05:03;1.60;;;1.50;;
4194;SDS011;2111;48.050;11.626;2022-09-01T12:07:53;1.55;;;1.20;;
4194;SDS011;2111;48.050;11.626;2022-09-01T12:10:32;2.05;;;1.10;;
4194;SDS011;2111;48.050;11.626;2022-09-01T12:13:07;1.55;;;1.23;;
4194;SDS011;2111;48.050;11.626;2022-09-01T12:15:51;1.42;;;1.20;;
4194;SDS011;2111;48.050;11.626;2022-09-01T12:18:45;1.30;;;1.10;;
4194;SDS011;2111;48.050;11.626;2022-09-01T12:21:20;1.95;;;1.38;;
4194;SDS011;2111;48.050;11.626;2022-09-01T12:23:51;2.50;;;1.05;;
4194;SDS011;2111;48.050;11.626;2022-09-01T12:26:19;1.10;;;1.00;;
4194;SDS011;2111;48.050;11.626;2022-09-01T12:28:54;1.20;;;1.10;;
4194;SDS011;2111;48.050;11.626;2022-09-01T12:31:23;1.73;;;1.17;;
4194;SDS011;2111;48.050;11.626;2022-09-01T12:33:51;1.20;;;1.13;;
4194;SDS011;2111;48.050;11.626;2022-09-01T12:36:24;0.88;;;0.88;;
4194;SDS011;2111;48.050;11.626;2022-09-01T12:38:53;1.00;;;1.00;;
4194;SDS011;2111;48.050;11.626;2022-09-01T12:46:56;0.68;;;0.68;;
4194;SDS011;2111;48.050;11.626;2022-09-01T12:49:33;0.65;;;0.65;;
4194;SDS011;2111;48.050;11.626;2022-09-01T12:54:45;1.67;;;0.90;;
4194;SDS011;2111;48.050;11.626;2022-09-01T12:57:27;1.70;;;0.93;;
4194;SDS011;2111;48.050;11.626;2022-09-01T13:02:39;1.00;;;1.00;;
4194;SDS011;2111;48.050;11.626;2022-09-01T13:06:08;1.00;;;1.00;;
4194;SDS011;2111;48.050;11.626;2022-09-01T13:10:39;1.73;;;1.30;;
4194;SDS011;2111;48.050;11.626;2022-09-01T13:13:09;1.48;;;0.93;;
4194;SDS011;2111;48.050;11.626;2022-09-01T13:15:37;1.10;;;1.00;;
4194;SDS011;2111;48.050;11.626;2022-09-01T13:18:05;2.95;;;1.40;;
4194;SDS011;2111;48.050;11.626;2022-09-01T13:20:32;1.50;;;1.40;;
4194;SDS011;2111;48.050;11.626;2022-09-01T13:22:59;1.40;;;1.30;;
4194;SDS011;2111;48.050;11.626;2022-09-01T13:25:25;1.40;;;1.20;;
4194;SDS011;2111;48.050;11.626;2022-09-01T13:27:52;1.83;;;1.20;;
4194;SDS011;2111;48.050;11.626;2022-09-01T13:30:21;1.00;;;1.00;;
4194;SDS011;2111;48.050;11.626;2022-09-01T13:32:49;0.98;;;0.82;;
4194;SDS011;2111;48.050;11.626;2022-09-01T13:35:36;0.88;;;0.88;;
4194;SDS011;2111;48.050;11.626;2022-09-01T13:38:04;1.52;;;1.10;;
4194;SDS011;2111;48.050;11.626;2022-09-01T13:40:31;1.38;;;1.00;;
4194;SDS011;2111;48.050;11.626;2022-09-01T13:42:57;3.17;;;0.70;;
4194;SDS011;2111;48.050;11.626;2022-09-01T13:45:24;1.55;;;1.00;;
4194;SDS011;2111;48.050;11.626;2022-09-01T13:47:51;1.88;;;0.82;;
4194;SDS011;2111;48.050;11.626;2022-09-01T13:50:39;0.93;;;0.70;;
4194;SDS011;2111;48.050;11.626;2022-09-01T13:53:26;1.17;;;0.70;;
4194;SDS011;2111;48.050;11.626;2022-09-01T13:55:53;1.23;;;0.90;;
4194;SDS011;2111;48.050;11.626;2022-09-01T13:58:20;1.42;;;0.98;;
4194;SDS011;2111;48.050;11.626;2022-09-01T14:00:47;1.00;;;1.00;;
4194;SDS011;2111;48.050;11.626;2022-09-01T14:03:17;1.30;;;1.00;;
4194;SDS011;2111;48.050;11.626;2022-09-01T14:05:47;1.20;;;0.90;;
4194;SDS011;2111;48.050;11.626;2022-09-01T14:08:17;1.00;;;0.90;;
4194;SDS011;2111;48.050;11.626;2022-09-01T14:10:46;1.20;;;0.80;;
4194;SDS011;2111;48.050;11.626;2022-09-01T14:13:16;2.30;;;0.82;;
4194;SDS011;2111;48.050;11.626;2022-09-01T14:15:44;0.70;;;0.70;;
4194;SDS011;2111;48.050;11.626;2022-09-01T14:18:12;1.02;;;0.75;;
4194;SDS011;2111;48.050;11.626;2022-09-01T14:20:41;0.90;;;0.90;;
4194;SDS011;2111;48.050;11.626;2022-09-01T14:23:10;1.98;;;0.75;;
4194;SDS011;2111;48.050;11.626;2022-09-01T14:25:40;1.23;;;1.13;;
4194;SDS011;2111;48.050;11.626;2022-09-01T14:28:09;1.20;;;1.10;;
4194;SDS011;2111;48.050;11.626;2022-09-01T14:30:38;1.55;;;0.90;;
4194;SDS011;2111;48.050;11.626;2022-09-01T14:33:07;1.63;;;1.20;;
4194;SDS011;2111;48.050;11.626;2022-09-01T14:35:36;1.02;;;0.88;;
4194;SDS011;2111;48.050;11.626;2022-09-01T14:38:05;1.95;;;0.85;;
4194;SDS011;2111;48.050;11.626;2022-09-01T14:40:34;0.82;;;0.82;;
4194;SDS011;2111;48.050;11.626;2022-09-01T14:43:06;2.45;;;1.13;;
4194;SDS011;2111;48.050;11.626;2022-09-01T14:45:35;0.80;;;0.80;;
4194;SDS011;2111;48.050;11.626;2022-09-01T14:48:06;0.85;;;0.85;;
4194;SDS011;2111;48.050;11.626;2022-09-01T14:50:37;0.90;;;0.90;;
4194;SDS011;2111;48.050;11.626;2022-09-01T14:53:09;0.98;;;0.88;;
4194;SDS011;2111;48.050;11.626;2022-09-01T14:55:36;1.30;;;0.90;;
4194;SDS011;2111;48.050;11.626;2022-09-01T14:58:03;3.95;;;1.00;;
4194;SDS011;2111;48.050;11.626;2022-09-01T15:00:31;1.00;;;0.80;;
4194;SDS011;2111;48.050;11.626;2022-09-01T15:03:00;0.80;;;0.80;;
4194;SDS011;2111;48.050;11.626;2022-09-01T15:05:28;2.15;;;1.15;;
4194;SDS011;2111;48.050;11.626;2022-09-01T15:08:05;1.13;;;0.88;;
4194;SDS011;2111;48.050;11.626;2022-09-01T15:10:33;0.98;;;0.98;;
4194;SDS011;2111;48.050;11.626;2022-09-01T15:13:00;2.47;;;0.80;;
4194;SDS011;2111;48.050;11.626;2022-09-01T15:15:27;1.23;;;0.77;;
4194;SDS011;2111;48.050;11.626;2022-09-01T15:17:55;0.70;;;0.70;;
4194;SDS011;2111;48.050;11.626;2022-09-01T15:20:22;1.05;;;0.70;;
4194;SDS011;2111;48.050;11.626;2022-09-01T15:23:08;0.90;;;0.70;;
4194;SDS011;2111;48.050;11.626;2022-09-01T15:25:35;1.13;;;0.75;;
4194;SDS011;2111;48.050;11.626;2022-09-01T15:28:03;0.70;;;0.70;;
4194;SDS011;2111;48.050;11.626;2022-09-01T15:30:31;1.27;;;0.77;;
4194;SDS011;2111;48.050;11.626;2022-09-01T15:32:58;0.55;;;0.55;;
4194;SDS011;2111;48.050;11.626;2022-09-01T15:35:26;1.83;;;0.65;;
4194;SDS011;2111;48.050;11.626;2022-09-01T15:37:54;1.20;;;0.80;;
4194;SDS011;2111;48.050;11.626;2022-09-01T15:40:21;0.47;;;0.47;;
4194;SDS011;2111;48.050;11.626;2022-09-01T15:42:49;1.33;;;0.70;;
4194;SDS011;2111;48.050;11.626;2022-09-01T15:45:17;0.63;;;0.63;;
4194;SDS011;2111;48.050;11.626;2022-09-01T15:47:45;0.80;;;0.60;;
4194;SDS011;2111;48.050;11.626;2022-09-01T15:50:17;0.60;;;0.60;;
4194;SDS011;2111;48.050;11.626;2022-09-01T15:52:57;0.77;;;0.70;;
4194;SDS011;2111;48.050;11.626;2022-09-01T15:55:28;0.75;;;0.75;;
4194;SDS011;2111;48.050;11.626;2022-09-01T15:57:57;0.70;;;0.70;;
4194;SDS011;2111;48.050;11.626;2022-09-01T16:00:25;2.20;;;0.63;;
4194;SDS011;2111;48.050;11.626;2022-09-01T16:02:52;1.65;;;0.55;;
4194;SDS011;2111;48.050;11.626;2022-09-01T16:05:23;0.45;;;0.45;;
4194;SDS011;2111;48.050;11.626;2022-09-01T16:07:50;0.45;;;0.45;;
4194;SDS011;2111;48.050;11.626;2022-09-01T16:10:18;0.73;;;0.50;;
4194;SDS011;2111;48.050;11.626;2022-09-01T16:12:45;0.65;;;0.50;;
4194;SDS011;2111;48.050;11.626;2022-09-01T16:15:14;0.50;;;0.50;;
4194;SDS011;2111;48.050;11.626;2022-09-01T16:17:51;0.70;;;0.60;;
4194;SDS011;2111;48.050;11.626;2022-09-01T16:20:44;0.55;;;0.55;;
4194;SDS011;2111;48.050;11.626;2022-09-01T16:23:15;0.55;;;0.55;;
4194;SDS011;2111;48.050;11.626;2022-09-01T16:25:43;0.57;;;0.57;;
4194;SDS011;2111;48.050;11.626;2022-09-01T16:28:27;0.80;;;0.57;;
4194;SDS011;2111;48.050;11.626;2022-09-01T16:31:00;0.52;;;0.50;;